Weather History for Hallock, MN

Change the Weather History Date:

Monday, September 16, 2013

  Actual Average Record
Temperature  
Mean Temperature 53 °F -  
Max Temperature 69 °F 66 °F 86 °F (1940)
Min Temperature 37 °F 43 °F 25 °F (1973)
Degree Days  
Heating Degree Days 12    
Growing Degree Days 3 (Base 50)    
Moisture  
Dew Point 40 °F    
Average Humidity 62    
Maximum Humidity 93    
Minimum Humidity 31    
Precipitation  
Precipitation 0.00 in - - ()
Sea Level Pressure  
Sea Level Pressure 30.22 in    
Wind  
Wind Speed 9 mph (SSE)    
Max Wind Speed 20 mph    
Max Gust Speed 26 mph    
Visibility 10 miles    
Events      
Averages and records for this station are not official NWS values.
T = Trace of Precipitation, MM = Missing Value Source: NWS Daily Summary

Daily Weather History Graph

Daily Weather History Graph

Search for Another Location

Airport:

Trip Planner

Search our weather history database for the weather conditions in past years. The results will help you decide how hot, cold, wet, or windy it might be!

Date:

Astronomy

Sep. 16, 2013 Rise Set
Actual Time 7:06 AM CDT 7:37 PM CDT
Civil Twilight 6:34 AM CDT 8:09 PM CDT
Nautical Twilight 5:56 AM CDT 8:46 PM CDT
Astronomical Twilight 5:17 AM CDT 9:25 PM CDT
Moon 5:56 PM CDT (9/16) 3:41 AM CDT (9/16)
Length of Visible Light 13h 34m
Length of Day
12h 31m
Waxing Gibbous, 90% of the Moon is Illuminated
Sep 16
Waxing Gibbous
Sep 19
Full
Sep 26
Last Quarter
Oct 4
New
Oct 11
First Quarter

Hourly Weather History & Observations

Time (CDT) Temp. Windchill Dew Point Humidity Pressure Visibility Wind Dir Wind Speed Gust Speed Precip Events Conditions
12:13 AM 42.8 °F 41.1 °F 37.4 °F 81% 30.32 in 10.0 mi ESE 3.5 mph - N/A   Clear
12:33 AM 39.2 °F 35.0 °F 35.6 °F 87% 30.32 in 10.0 mi SE 5.8 mph - N/A   Clear
12:53 AM 42.8 °F 38.6 °F 37.4 °F 81% 30.32 in 10.0 mi SE 6.9 mph - N/A   Clear
1:13 AM 42.8 °F 38.6 °F 37.4 °F 81% 30.32 in 10.0 mi SE 6.9 mph - N/A   Clear
1:33 AM 41.0 °F 36.4 °F 37.4 °F 87% 30.33 in 10.0 mi SSE 6.9 mph - N/A   Clear
1:53 AM 39.2 °F 35.0 °F 35.6 °F 87% 30.33 in 10.0 mi SE 5.8 mph - N/A   Clear
2:13 AM 41.0 °F 37.1 °F 35.6 °F 81% 30.32 in 10.0 mi SE 5.8 mph - N/A   Clear
2:33 AM 41.0 °F 37.1 °F 35.6 °F 81% 30.33 in 10.0 mi SE 5.8 mph - N/A   Clear
2:53 AM 39.2 °F 35.0 °F 35.6 °F 87% 30.32 in 10.0 mi SE 5.8 mph - N/A   Clear
3:13 AM 39.2 °F 35.0 °F 35.6 °F 87% 30.32 in 10.0 mi SE 5.8 mph - N/A   Clear
3:33 AM 42.8 °F 39.3 °F 37.4 °F 81% 30.32 in 10.0 mi SE 5.8 mph - N/A   Clear
3:53 AM 42.8 °F 38.6 °F 35.6 °F 76% 30.32 in 10.0 mi SE 6.9 mph - N/A   Clear
4:13 AM 42.8 °F 38.6 °F 35.6 °F 76% 30.32 in 10.0 mi SE 6.9 mph - N/A   Clear
4:33 AM 42.8 °F 38.0 °F 37.4 °F 81% 30.32 in 10.0 mi SE 8.1 mph - N/A   Clear
4:53 AM 41.0 °F 36.4 °F 35.6 °F 81% 30.32 in 10.0 mi SE 6.9 mph - N/A   Clear
5:14 AM 39.2 °F 34.2 °F 35.6 °F 87% 30.32 in 10.0 mi SSE 6.9 mph - N/A   Clear
5:33 AM 39.2 °F 35.0 °F 35.6 °F 87% 30.32 in 10.0 mi SSE 5.8 mph - N/A   Clear
5:54 AM 37.4 °F 33.8 °F 33.8 °F 87% 30.32 in 10.0 mi SSE 4.6 mph - N/A   Clear
6:13 AM 37.4 °F 32.1 °F 33.8 °F 87% 30.32 in 10.0 mi SE 6.9 mph - N/A   Clear
6:33 AM 37.4 °F 32.1 °F 35.6 °F 93% 30.32 in 10.0 mi SE 6.9 mph - N/A   Clear
6:53 AM 39.2 °F 34.2 °F 35.6 °F 87% 30.32 in 10.0 mi SE 6.9 mph - N/A   Clear
7:13 AM 39.2 °F 34.2 °F 35.6 °F 87% 30.32 in 10.0 mi SE 6.9 mph - N/A   Clear
7:33 AM 39.2 °F 34.2 °F 37.4 °F 93% 30.31 in 10.0 mi SE 6.9 mph - N/A   Clear
7:53 AM 42.8 °F 38.0 °F 37.4 °F 81% 30.31 in 10.0 mi SE 8.1 mph - N/A   Clear
8:13 AM 44.6 °F 40.2 °F 39.2 °F 81% 30.31 in 10.0 mi SE 8.1 mph - N/A   Clear
8:33 AM 44.6 °F 40.7 °F 41.0 °F 87% 30.31 in 10.0 mi SSE 6.9 mph - N/A   Clear
8:53 AM 48.2 °F - 44.6 °F 87% 30.31 in 10.0 mi SSE 9.2 mph - N/A   Clear
9:13 AM 50.0 °F - 44.6 °F 82% 30.31 in 10.0 mi SSE 9.2 mph - N/A   Clear
9:33 AM 53.6 °F - 46.4 °F 77% 30.31 in 10.0 mi SSE 9.2 mph - N/A   Clear
9:53 AM 53.6 °F - 46.4 °F 77% 30.31 in 10.0 mi SSE 9.2 mph - N/A   Clear
10:13 AM 55.4 °F - 46.4 °F 72% 30.30 in 10.0 mi SSE 8.1 mph - N/A   Clear
10:33 AM 57.2 °F - 46.4 °F 67% 30.29 in 10.0 mi South 10.4 mph - N/A   Clear
10:53 AM 60.8 °F - 46.4 °F 59% 30.29 in 10.0 mi South 9.2 mph - N/A   Clear
11:13 AM 62.6 °F - 46.4 °F 55% 30.28 in 10.0 mi South 13.8 mph 19.6 mph N/A   Clear
11:33 AM 62.6 °F - 46.4 °F 55% 30.28 in 10.0 mi SSW 13.8 mph 20.7 mph N/A   Clear
11:53 AM 62.6 °F - 46.4 °F 55% 30.27 in 10.0 mi South 12.7 mph - N/A   Clear
12:13 PM 64.4 °F - 46.4 °F 52% 30.27 in 10.0 mi South 13.8 mph 21.9 mph N/A   Clear
12:33 PM 66.2 °F - 44.6 °F 46% 30.26 in 10.0 mi South 10.4 mph 21.9 mph N/A   Clear
12:53 PM 66.2 °F - 44.6 °F 46% 30.25 in 10.0 mi South 13.8 mph 21.9 mph N/A   Clear
1:13 PM 66.2 °F - 44.6 °F 46% 30.24 in 10.0 mi South 17.3 mph 24.2 mph N/A   Clear
1:33 PM 66.2 °F - 42.8 °F 43% 30.24 in 10.0 mi South 15.0 mph 21.9 mph N/A   Clear
1:53 PM 66.2 °F - 42.8 °F 43% 30.23 in 10.0 mi South 16.1 mph 23.0 mph N/A   Clear
2:13 PM 69.8 °F - 42.8 °F 38% 30.22 in 10.0 mi South 19.6 mph 23.0 mph N/A   Clear
2:33 PM 69.8 °F - 42.8 °F 38% 30.21 in 10.0 mi South 15.0 mph 23.0 mph N/A   Clear
2:53 PM 69.8 °F - 39.2 °F 33% 30.20 in 10.0 mi South 16.1 mph 25.3 mph N/A   Clear
3:13 PM 69.8 °F - 39.2 °F 33% 30.19 in 10.0 mi SSW 17.3 mph 21.9 mph N/A   Clear
3:33 PM 69.8 °F - 37.4 °F 31% 30.18 in 10.0 mi South 16.1 mph 26.5 mph N/A   Clear
3:53 PM 69.8 °F - 37.4 °F 31% 30.17 in 10.0 mi South 15.0 mph 25.3 mph N/A   Clear
4:13 PM 69.8 °F - 37.4 °F 31% 30.16 in 10.0 mi South 15.0 mph 24.2 mph N/A   Clear
4:33 PM 69.8 °F - 39.2 °F 33% 30.15 in 10.0 mi South 16.1 mph 24.2 mph N/A   Clear
4:53 PM 69.8 °F - 37.4 °F 31% 30.14 in 10.0 mi South 16.1 mph 20.7 mph N/A   Clear
5:13 PM 69.8 °F - 37.4 °F 31% 30.13 in 10.0 mi SSE 16.1 mph 23.0 mph N/A   Clear
5:33 PM 69.8 °F - 37.4 °F 31% 30.12 in 10.0 mi South 16.1 mph 26.5 mph N/A   Clear
5:53 PM 69.8 °F - 39.2 °F 33% 30.12 in 10.0 mi South 15.0 mph 21.9 mph N/A   Clear
6:13 PM 69.8 °F - 39.2 °F 33% 30.11 in 10.0 mi South 16.1 mph 21.9 mph N/A   Clear
6:34 PM 68.0 °F - 41.0 °F 37% 30.10 in 10.0 mi South 15.0 mph 23.0 mph N/A   Clear
6:53 PM 66.2 °F - 42.8 °F 43% 30.09 in 10.0 mi South 15.0 mph 21.9 mph N/A   Clear
7:13 PM 66.2 °F - 42.8 °F 43% 30.09 in 10.0 mi South 10.4 mph 17.3 mph N/A   Clear
7:34 PM 64.4 °F - 42.8 °F 45% 30.08 in 10.0 mi South 9.2 mph 17.3 mph N/A   Clear
7:53 PM 62.6 °F - 44.6 °F 52% 30.08 in 10.0 mi SSE 10.4 mph - N/A   Clear
8:13 PM 62.6 °F - 42.8 °F 48% 30.07 in 10.0 mi South 11.5 mph 17.3 mph N/A   Clear
8:34 PM 62.6 °F - 42.8 °F 48% 30.07 in 10.0 mi SSE 11.5 mph - N/A   Clear
8:53 PM 60.8 °F - 42.8 °F 52% 30.07 in 10.0 mi SSE 12.7 mph - N/A   Clear
9:13 PM 60.8 °F - 41.0 °F 48% 30.07 in 10.0 mi SSE 11.5 mph - N/A   Clear
9:33 PM 57.2 °F - 42.8 °F 59% 30.07 in 10.0 mi SSE 10.4 mph - N/A   Clear
9:53 PM 57.2 °F - 42.8 °F 59% 30.06 in 10.0 mi SSE 11.5 mph - N/A   Clear
10:14 PM 57.2 °F - 42.8 °F 59% 30.07 in 10.0 mi SSE 13.8 mph 18.4 mph N/A   Clear
10:33 PM 57.2 °F - 42.8 °F 59% 30.06 in 10.0 mi SSE 12.7 mph 17.3 mph N/A   Clear
10:53 PM 57.2 °F - 39.2 °F 51% 30.06 in 10.0 mi SSE 11.5 mph 19.6 mph N/A   Clear
11:14 PM 55.4 °F - 37.4 °F 51% 30.06 in 10.0 mi SSE 12.7 mph 19.6 mph N/A   Clear
11:33 PM 55.4 °F - 37.4 °F 51% 30.05 in 10.0 mi SSE 11.5 mph - N/A   Clear
11:53 PM 55.4 °F - 37.4 °F 51% 30.05 in 10.0 mi SSE 11.5 mph - N/A   Clear